createdAt,value
2022-11-12T00:01:01.676Z,12.18
2022-11-12T00:03:28.488Z,12.14
2022-11-12T00:05:55.331Z,12.11
2022-11-12T00:08:22.827Z,12.07
2022-11-12T00:10:49.742Z,12.05
2022-11-12T00:13:16.617Z,12.03
2022-11-12T00:15:43.391Z,12.00
2022-11-12T00:18:10.280Z,11.97
2022-11-12T00:20:37.135Z,11.94
2022-11-12T00:23:04.015Z,11.92
2022-11-12T00:25:31.110Z,11.89
2022-11-12T00:28:03.282Z,11.87
2022-11-12T00:30:30.110Z,11.83
2022-11-12T00:32:56.980Z,11.81
2022-11-12T00:35:23.761Z,11.78
2022-11-12T00:37:57.729Z,11.77
2022-11-12T00:40:25.335Z,11.74
2022-11-12T00:42:52.966Z,11.71
2022-11-12T00:45:20.795Z,11.69
2022-11-12T00:47:47.625Z,11.66
2022-11-12T00:50:15.944Z,11.65
2022-11-12T00:52:42.994Z,11.63
2022-11-12T00:55:09.958Z,11.62
2022-11-12T00:57:36.765Z,11.58
2022-11-12T01:00:06.558Z,11.58
2022-11-12T01:02:40.684Z,11.54
2022-11-12T01:05:10.429Z,11.52
2022-11-12T01:07:37.288Z,11.49
2022-11-12T01:10:04.949Z,11.47
2022-11-12T01:12:32.563Z,11.45
2022-11-12T01:14:59.829Z,11.43
2022-11-12T01:17:26.665Z,11.41
2022-11-12T01:19:53.546Z,11.40
2022-11-12T01:22:20.313Z,11.40
2022-11-12T01:24:47.115Z,11.38
2022-11-12T01:27:14.089Z,11.37
2022-11-12T01:29:41.120Z,11.37
2022-11-12T01:32:08.036Z,11.37
2022-11-12T01:34:34.994Z,11.36
2022-11-12T01:37:01.753Z,11.36
2022-11-12T01:39:28.512Z,11.37
2022-11-12T01:41:55.313Z,11.38
2022-11-12T01:44:26.731Z,11.38
2022-11-12T01:47:29.494Z,11.35
2022-11-12T01:50:26.061Z,11.34
2022-11-12T01:53:01.151Z,11.33
2022-11-12T01:55:32.853Z,11.32
2022-11-12T01:58:10.902Z,11.32
2022-11-12T02:00:37.742Z,11.29
2022-11-12T02:03:13.068Z,11.29
2022-11-12T02:05:41.816Z,11.27
2022-11-12T02:08:11.054Z,11.26
2022-11-12T02:10:40.277Z,11.25
2022-11-12T02:13:26.891Z,11.21
2022-11-12T02:15:53.759Z,11.18
2022-11-12T02:18:20.531Z,11.16
2022-11-12T02:20:59.540Z,11.16
2022-11-12T02:23:26.340Z,11.12
2022-11-12T02:25:53.109Z,11.11
2022-11-12T02:28:19.978Z,11.09
2022-11-12T02:30:49.667Z,11.08
2022-11-12T02:33:16.732Z,11.07
2022-11-12T02:35:43.552Z,11.04
2022-11-12T02:38:10.557Z,11.02
2022-11-12T02:40:37.445Z,11.00
2022-11-12T02:43:04.416Z,10.98
2022-11-12T02:45:32.066Z,10.96
2022-11-12T02:47:59.537Z,10.93
2022-11-12T02:50:26.319Z,10.90
2022-11-12T02:52:53.083Z,10.88
2022-11-12T02:55:19.909Z,10.85
2022-11-12T02:57:46.671Z,10.82
2022-11-12T03:00:14.037Z,10.80
2022-11-12T03:02:42.698Z,10.78
2022-11-12T03:05:11.524Z,10.74
2022-11-12T03:07:39.082Z,10.72
2022-11-12T03:10:06.659Z,10.70
2022-11-12T03:12:33.454Z,10.68
2022-11-12T03:15:00.241Z,10.65
2022-11-12T03:17:27.019Z,10.63
2022-11-12T03:19:53.796Z,10.59
2022-11-12T03:22:20.552Z,10.56
2022-11-12T03:24:47.299Z,10.53
2022-11-12T03:27:14.077Z,10.50
2022-11-12T03:29:40.829Z,10.47
2022-11-12T03:32:07.592Z,10.44
2022-11-12T03:34:34.407Z,10.41
2022-11-12T03:37:01.193Z,10.38
2022-11-12T03:39:27.975Z,10.33
2022-11-12T03:41:54.726Z,10.30
2022-11-12T03:44:21.823Z,10.27
2022-11-12T03:46:48.667Z,10.24
2022-11-12T03:49:15.439Z,10.20
2022-11-12T03:51:42.467Z,10.17
2022-11-12T03:54:09.330Z,10.14
2022-11-12T03:56:36.100Z,10.12
2022-11-12T03:59:02.960Z,10.08
2022-11-12T04:01:29.774Z,10.04
2022-11-12T04:03:56.565Z,10.03
2022-11-12T04:06:42.176Z,10.00
2022-11-12T04:09:09.048Z,9.97
2022-11-12T04:11:35.822Z,9.94
2022-11-12T04:14:02.680Z,9.91
2022-11-12T04:16:47.976Z,9.88
2022-11-12T04:19:33.075Z,9.83
2022-11-12T04:22:10.317Z,9.82
2022-11-12T04:24:59.163Z,9.78
2022-11-12T04:27:29.797Z,9.76
2022-11-12T04:30:16.010Z,9.73
2022-11-12T04:32:50.403Z,9.71
2022-11-12T04:35:19.040Z,9.69
2022-11-12T04:37:46.480Z,9.66
2022-11-12T04:40:37.137Z,9.65
2022-11-12T04:43:24.724Z,9.60
2022-11-12T04:45:53.838Z,9.56
2022-11-12T04:48:22.294Z,9.55
2022-11-12T04:50:54.753Z,9.53
2022-11-12T04:53:21.863Z,9.51
2022-11-12T04:55:54.055Z,9.50
2022-11-12T04:58:21.743Z,9.48
2022-11-12T05:00:50.243Z,9.45
2022-11-12T05:03:17.893Z,9.43
2022-11-12T05:05:44.656Z,9.40
2022-11-12T05:08:11.438Z,9.37
2022-11-12T05:10:38.247Z,9.37
2022-11-12T05:13:05.018Z,9.35
2022-11-12T05:15:31.793Z,9.32
2022-11-12T05:17:58.603Z,9.31
2022-11-12T05:20:25.366Z,9.30
2022-11-12T05:23:05.784Z,9.28
2022-11-12T05:25:35.738Z,9.25
2022-11-12T05:28:02.561Z,9.23
2022-11-12T05:30:29.350Z,9.20
2022-11-12T05:32:56.090Z,9.20
2022-11-12T05:35:22.846Z,9.17
2022-11-12T05:37:49.688Z,9.15
2022-11-12T05:40:16.513Z,9.12
2022-11-12T05:42:44.741Z,9.10
2022-11-12T05:45:11.535Z,9.10
2022-11-12T05:47:38.305Z,9.09
2022-11-12T05:50:05.609Z,9.05
2022-11-12T05:52:32.392Z,9.03
2022-11-12T05:54:59.201Z,9.01
2022-11-12T05:57:27.728Z,8.97
2022-11-12T05:59:54.494Z,8.95
2022-11-12T06:02:21.407Z,8.94
2022-11-12T06:04:48.275Z,8.93
2022-11-12T06:07:15.123Z,8.90
2022-11-12T06:09:41.949Z,8.91
2022-11-12T06:12:08.717Z,8.89
2022-11-12T06:14:35.481Z,8.89
2022-11-12T06:17:02.244Z,8.87
2022-11-12T06:19:29.005Z,8.87
2022-11-12T06:21:55.788Z,8.86
2022-11-12T06:24:22.664Z,8.84
2022-11-12T06:26:49.618Z,8.83
2022-11-12T06:29:16.403Z,8.80
2022-11-12T06:31:43.153Z,8.80
2022-11-12T06:34:09.939Z,8.79
2022-11-12T06:36:36.717Z,8.77
2022-11-12T06:39:03.792Z,8.75
2022-11-12T06:41:30.567Z,8.76
2022-11-12T06:43:57.315Z,8.75
2022-11-12T06:46:24.087Z,8.73
2022-11-12T06:48:50.858Z,8.72
2022-11-12T06:51:20.397Z,8.73
2022-11-12T06:53:47.888Z,8.72
2022-11-12T06:56:15.493Z,8.73
2022-11-12T06:58:42.629Z,8.76
2022-11-12T07:01:14.389Z,8.77
2022-11-12T07:03:42.267Z,8.78
2022-11-12T07:06:13.119Z,8.81
2022-11-12T07:08:40.673Z,8.85
2022-11-12T07:11:07.981Z,8.91
2022-11-12T07:13:35.980Z,8.93
2022-11-12T07:16:04.681Z,8.96
2022-11-12T07:18:32.448Z,8.99
2022-11-12T07:21:01.304Z,9.03
2022-11-12T07:23:30.317Z,9.06
2022-11-12T07:26:03.962Z,9.13
2022-11-12T07:28:31.400Z,9.17
2022-11-12T07:30:59.892Z,9.26
2022-11-12T07:33:28.076Z,9.36
2022-11-12T07:35:59.624Z,9.42
2022-11-12T07:38:27.847Z,9.50
2022-11-12T07:41:21.339Z,9.60
2022-11-12T07:43:50.593Z,9.65
2022-11-12T07:46:23.900Z,9.69
2022-11-12T07:48:51.680Z,9.73
2022-11-12T07:51:25.671Z,9.81
2022-11-12T07:53:58.905Z,9.87
2022-11-12T07:56:27.846Z,9.97
2022-11-12T07:58:54.612Z,10.11
2022-11-12T08:01:33.159Z,10.26
2022-11-12T08:04:02.600Z,10.41
2022-11-12T08:06:30.769Z,10.59
2022-11-12T08:09:00.458Z,10.74
2022-11-12T08:11:27.473Z,10.88
2022-11-12T08:13:54.385Z,11.01
2022-11-12T08:16:21.326Z,11.14
2022-11-12T08:18:48.167Z,11.24
2022-11-12T08:21:17.675Z,11.36
2022-11-12T08:23:45.055Z,11.48
2022-11-12T08:26:15.137Z,11.57
2022-11-12T08:28:41.951Z,11.69
2022-11-12T08:31:22.786Z,11.85
2022-11-12T08:33:50.131Z,11.95
2022-11-12T08:36:18.056Z,12.08
2022-11-12T08:38:45.304Z,12.20
2022-11-12T08:41:14.446Z,12.34
2022-11-12T08:43:42.621Z,12.46
2022-11-12T08:46:09.901Z,12.57
2022-11-12T08:48:37.153Z,12.69
2022-11-12T08:51:20.413Z,12.81
2022-11-12T08:53:47.411Z,12.92
2022-11-12T08:56:14.369Z,13.01
2022-11-12T08:58:41.185Z,13.13
2022-11-12T09:01:08.881Z,13.22
2022-11-12T09:03:35.764Z,13.31
2022-11-12T09:06:05.283Z,13.39
2022-11-12T09:08:34.701Z,13.45
2022-11-12T09:11:01.708Z,13.51
2022-11-12T09:13:28.967Z,13.58
2022-11-12T09:16:01.586Z,13.65
2022-11-12T09:18:29.136Z,13.71
2022-11-12T09:21:01.336Z,13.79
2022-11-12T09:23:28.203Z,13.85
2022-11-12T09:25:56.845Z,13.93
2022-11-12T09:28:24.564Z,13.98
2022-11-12T09:30:53.588Z,14.01
2022-11-12T09:33:31.243Z,14.02
2022-11-12T09:36:01.859Z,14.04
2022-11-12T09:38:28.974Z,14.06
2022-11-12T09:41:10.905Z,14.11
2022-11-12T09:43:45.244Z,14.14
2022-11-12T09:46:28.287Z,14.15
2022-11-12T09:49:11.470Z,14.20
2022-11-12T09:51:48.385Z,14.26
2022-11-12T09:54:31.955Z,14.33
2022-11-12T09:56:58.883Z,14.39
2022-11-12T09:59:44.289Z,14.50
2022-11-12T10:02:55.497Z,14.54
2022-11-12T10:05:42.254Z,14.59
2022-11-12T10:08:34.317Z,14.66
2022-11-12T10:12:04.599Z,14.72
2022-11-12T10:15:39.501Z,14.77
2022-11-12T10:18:37.955Z,14.81
2022-11-12T10:21:34.894Z,14.85
2022-11-12T10:24:03.539Z,14.88
2022-11-12T10:26:32.378Z,14.91
2022-11-12T10:29:19.966Z,14.95
2022-11-12T10:31:46.747Z,14.95
2022-11-12T10:34:13.398Z,14.95
2022-11-12T10:37:01.854Z,14.99
2022-11-12T10:39:34.319Z,14.98
2022-11-12T10:42:11.783Z,14.99
2022-11-12T10:44:40.050Z,15.03
2022-11-12T10:47:27.949Z,15.06
2022-11-12T10:50:20.926Z,15.10
2022-11-12T10:53:06.643Z,15.15
2022-11-12T10:55:37.652Z,15.21
2022-11-12T10:58:10.185Z,15.27
2022-11-12T11:01:03.286Z,15.35
2022-11-12T11:03:35.057Z,15.38
2022-11-12T11:06:22.887Z,15.44
2022-11-12T11:08:52.730Z,15.48
2022-11-12T11:11:31.659Z,15.53
2022-11-12T11:14:34.807Z,15.58
2022-11-12T11:17:08.355Z,15.58
2022-11-12T11:19:41.735Z,15.61
2022-11-12T11:22:37.053Z,15.64
2022-11-12T11:25:27.978Z,15.67
2022-11-12T11:28:18.628Z,15.70
2022-11-12T11:31:06.721Z,15.71
2022-11-12T11:34:02.453Z,15.73
2022-11-12T11:36:59.491Z,15.77
2022-11-12T11:39:53.893Z,15.78
2022-11-12T11:42:41.866Z,15.83
2022-11-12T11:45:17.570Z,15.87
2022-11-12T11:48:01.508Z,15.92
2022-11-12T11:50:37.199Z,15.97
2022-11-12T11:53:16.222Z,16.05
2022-11-12T11:56:02.648Z,16.09
2022-11-12T11:58:59.755Z,16.15
2022-11-12T12:02:15.749Z,16.20
2022-11-12T12:04:50.479Z,16.22
2022-11-12T12:07:48.102Z,16.26
2022-11-12T12:11:07.019Z,16.29
2022-11-12T12:14:04.631Z,16.32
2022-11-12T12:16:37.695Z,16.34
2022-11-12T12:19:38.423Z,16.36
2022-11-12T12:22:16.073Z,16.36
2022-11-12T12:24:51.424Z,16.37
2022-11-12T12:27:24.769Z,16.38
2022-11-12T12:29:58.587Z,16.39
2022-11-12T12:32:50.842Z,16.37
2022-11-12T12:35:31.408Z,16.40
2022-11-12T12:38:25.485Z,16.44
2022-11-12T12:41:07.001Z,16.46
2022-11-12T12:43:55.144Z,16.52
2022-11-12T12:46:27.209Z,16.53
2022-11-12T12:48:56.291Z,16.54
2022-11-12T12:51:23.632Z,16.54
2022-11-12T12:53:50.424Z,16.53
2022-11-12T12:56:42.344Z,16.52
2022-11-12T12:59:24.807Z,16.51
2022-11-12T13:02:21.123Z,16.49
2022-11-12T13:04:52.926Z,16.48
2022-11-12T13:07:43.506Z,16.46
2022-11-12T13:10:41.405Z,16.41
2022-11-12T13:13:17.405Z,16.39
2022-11-12T13:15:47.554Z,16.34
2022-11-12T13:18:39.621Z,16.37
2022-11-12T13:21:22.212Z,16.37
2022-11-12T13:24:09.998Z,16.37
2022-11-12T13:26:39.665Z,16.38
2022-11-12T13:29:41.309Z,16.42
2022-11-12T13:32:33.967Z,16.41
2022-11-12T13:35:21.642Z,16.44
2022-11-12T13:38:15.754Z,16.43
2022-11-12T13:41:16.668Z,16.45
2022-11-12T13:43:47.321Z,16.46
2022-11-12T13:46:23.744Z,16.47
2022-11-12T13:49:06.857Z,16.48
2022-11-12T13:51:44.341Z,16.48
2022-11-12T13:54:43.677Z,16.46
2022-11-12T13:57:37.007Z,16.47
2022-11-12T14:00:20.795Z,16.47
2022-11-12T14:03:08.155Z,16.48
2022-11-12T14:05:37.918Z,16.46
2022-11-12T14:08:55.788Z,16.44
2022-11-12T14:11:42.049Z,16.43
2022-11-12T14:14:46.161Z,16.42
2022-11-12T14:17:35.831Z,16.40
2022-11-12T14:20:30.405Z,16.37
2022-11-12T14:23:04.579Z,16.33
2022-11-12T14:25:31.868Z,16.30
2022-11-12T14:27:58.640Z,16.28
2022-11-12T14:30:32.342Z,16.26
2022-11-12T14:33:10.871Z,16.24
2022-11-12T14:35:39.665Z,16.18
2022-11-12T14:38:09.300Z,16.15
2022-11-12T14:40:42.328Z,16.12
2022-11-12T14:43:27.274Z,16.06
2022-11-12T14:45:56.980Z,16.01
2022-11-12T14:48:24.125Z,15.97
2022-11-12T14:50:59.830Z,15.94
2022-11-12T14:53:33.618Z,15.90
2022-11-12T14:56:03.971Z,15.85
2022-11-12T14:58:32.192Z,15.80
2022-11-12T15:00:59.071Z,15.73
2022-11-12T15:03:32.317Z,15.67
2022-11-12T15:06:11.390Z,15.60
2022-11-12T15:08:43.410Z,15.53
2022-11-12T15:11:32.073Z,15.43
2022-11-12T15:14:03.857Z,15.35
2022-11-12T15:16:36.111Z,15.27
2022-11-12T15:19:25.889Z,15.17
2022-11-12T15:22:01.055Z,15.08
2022-11-12T15:24:33.868Z,15.00
2022-11-12T15:27:27.646Z,14.92
2022-11-12T15:30:16.058Z,14.81
2022-11-12T15:32:43.251Z,14.72
2022-11-12T15:35:25.348Z,14.66
2022-11-12T15:37:52.702Z,14.57
2022-11-12T15:40:21.861Z,14.51
2022-11-12T15:42:48.963Z,14.43
2022-11-12T15:45:18.190Z,14.36
2022-11-12T15:47:45.356Z,14.29
2022-11-12T15:50:23.895Z,14.21
2022-11-12T15:52:51.255Z,14.14
2022-11-12T15:55:18.892Z,14.07
2022-11-12T15:57:52.412Z,14.02
2022-11-12T16:00:22.150Z,13.94
2022-11-12T16:02:59.381Z,13.89
2022-11-12T16:05:26.625Z,13.82
2022-11-12T16:07:53.400Z,13.75
2022-11-12T16:10:20.227Z,13.70
2022-11-12T16:12:48.007Z,13.65
2022-11-12T16:15:18.399Z,13.59
2022-11-12T16:17:46.754Z,13.54
2022-11-12T16:20:21.207Z,13.49
2022-11-12T16:22:48.671Z,13.37
2022-11-12T16:25:16.442Z,13.33
2022-11-12T16:27:43.386Z,13.28
2022-11-12T16:30:20.499Z,13.25
2022-11-12T16:32:50.421Z,13.20
2022-11-12T16:35:17.866Z,13.15
2022-11-12T16:37:46.462Z,13.12
2022-11-12T16:40:20.292Z,13.08
2022-11-12T16:42:47.084Z,13.02
2022-11-12T16:45:20.359Z,12.99
2022-11-12T16:47:53.880Z,12.93
2022-11-12T16:50:26.114Z,12.90
2022-11-12T16:52:53.693Z,12.86
2022-11-12T16:55:21.368Z,12.82
2022-11-12T16:57:48.153Z,12.78
2022-11-12T17:00:18.112Z,12.75
2022-11-12T17:02:48.311Z,12.70
2022-11-12T17:05:24.452Z,12.67
2022-11-12T17:07:57.069Z,12.65
2022-11-12T17:10:25.382Z,12.60
2022-11-12T17:12:52.867Z,12.56
2022-11-12T17:15:20.156Z,12.53
2022-11-12T17:17:47.012Z,12.48
2022-11-12T17:20:14.075Z,12.44
2022-11-12T17:22:40.856Z,12.41
2022-11-12T17:25:08.584Z,12.38
2022-11-12T17:27:35.373Z,12.34
2022-11-12T17:30:03.640Z,12.31
2022-11-12T17:32:30.435Z,12.27
2022-11-12T17:34:57.202Z,12.24
2022-11-12T17:37:23.979Z,12.19
2022-11-12T17:39:50.888Z,12.16
2022-11-12T17:42:17.743Z,12.13
2022-11-12T17:44:46.145Z,12.09
2022-11-12T17:47:13.146Z,12.07
2022-11-12T17:49:40.018Z,12.03
2022-11-12T17:52:06.845Z,12.02
2022-11-12T17:54:34.418Z,11.99
2022-11-12T17:57:01.303Z,11.96
2022-11-12T17:59:28.106Z,11.93
2022-11-12T18:01:54.869Z,11.92
2022-11-12T18:04:23.742Z,11.87
2022-11-12T18:06:50.914Z,11.84
2022-11-12T18:09:17.883Z,11.81
2022-11-12T18:11:53.988Z,11.80
2022-11-12T18:14:22.596Z,11.75
2022-11-12T18:16:49.823Z,11.72
2022-11-12T18:19:16.708Z,11.69
2022-11-12T18:21:43.493Z,11.66
2022-11-12T18:24:15.560Z,11.64
2022-11-12T18:26:44.040Z,11.61
2022-11-12T18:29:12.421Z,11.57
2022-11-12T18:31:40.414Z,11.56
2022-11-12T18:34:08.963Z,11.54
2022-11-12T18:36:35.873Z,11.51
2022-11-12T18:39:04.710Z,11.47
2022-11-12T18:41:33.218Z,11.44
2022-11-12T18:44:02.018Z,11.43
2022-11-12T18:46:28.838Z,11.41
2022-11-12T18:48:55.646Z,11.37
2022-11-12T18:51:22.473Z,11.35
2022-11-12T18:53:49.245Z,11.31
2022-11-12T18:56:21.902Z,11.30
2022-11-12T18:58:48.789Z,11.28
2022-11-12T19:01:22.242Z,11.26
2022-11-12T19:03:53.780Z,11.23
2022-11-12T19:06:21.126Z,11.20
2022-11-12T19:08:48.052Z,11.19
2022-11-12T19:11:18.584Z,11.17
2022-11-12T19:13:45.409Z,11.14
2022-11-12T19:16:17.042Z,11.13
2022-11-12T19:18:44.854Z,11.12
2022-11-12T19:21:23.892Z,11.09
2022-11-12T19:23:54.551Z,11.08
2022-11-12T19:26:23.779Z,11.05
2022-11-12T19:28:50.568Z,11.01
2022-11-12T19:31:24.313Z,11.01
2022-11-12T19:33:51.465Z,10.98
2022-11-12T19:36:22.133Z,10.98
2022-11-12T19:38:57.635Z,10.96
2022-11-12T19:41:25.414Z,10.94
2022-11-12T19:43:52.853Z,10.92
2022-11-12T19:46:20.502Z,10.90
2022-11-12T19:48:47.450Z,10.88
2022-11-12T19:51:14.451Z,10.86
2022-11-12T19:53:46.444Z,10.85
2022-11-12T19:56:17.042Z,10.83
2022-11-12T19:58:48.728Z,10.82
2022-11-12T20:01:18.532Z,10.80
2022-11-12T20:03:45.801Z,10.77
2022-11-12T20:06:18.086Z,10.76
2022-11-12T20:08:45.608Z,10.73
2022-11-12T20:11:13.423Z,10.72
2022-11-12T20:13:40.510Z,10.72
2022-11-12T20:16:11.170Z,10.69
2022-11-12T20:18:37.973Z,10.67
2022-11-12T20:21:05.838Z,10.66
2022-11-12T20:23:36.212Z,10.65
2022-11-12T20:26:14.249Z,10.63
2022-11-12T20:28:43.021Z,10.60
2022-11-12T20:31:16.884Z,10.59
2022-11-12T20:33:43.696Z,10.55
2022-11-12T20:36:13.954Z,10.53
2022-11-12T20:38:43.216Z,10.51
2022-11-12T20:41:36.472Z,10.49
2022-11-12T20:44:03.317Z,10.47
2022-11-12T20:46:30.134Z,10.47
2022-11-12T20:48:56.970Z,10.45
2022-11-12T20:51:28.504Z,10.46
2022-11-12T20:53:59.910Z,10.45
2022-11-12T20:56:29.881Z,10.44
2022-11-12T20:58:58.201Z,10.42
2022-11-12T21:01:27.281Z,10.42
2022-11-12T21:03:54.765Z,10.41
2022-11-12T21:06:25.965Z,10.41
2022-11-12T21:08:53.310Z,10.39
2022-11-12T21:11:23.476Z,10.38
2022-11-12T21:13:50.292Z,10.38
2022-11-12T21:16:17.291Z,10.39
2022-11-12T21:18:44.205Z,10.36
2022-11-12T21:21:14.940Z,10.35
2022-11-12T21:23:44.040Z,10.34
2022-11-12T21:26:19.320Z,10.34
2022-11-12T21:28:49.723Z,10.32
2022-11-12T21:31:22.559Z,10.33
2022-11-12T21:33:50.947Z,10.30
2022-11-12T21:36:18.379Z,10.31
2022-11-12T21:38:45.151Z,10.33
2022-11-12T21:41:22.039Z,10.34
2022-11-12T21:43:50.196Z,10.32
2022-11-12T21:46:23.656Z,10.32
2022-11-12T21:48:55.262Z,10.31
2022-11-12T21:51:25.841Z,10.31
2022-11-12T21:53:59.146Z,10.31
2022-11-12T21:56:27.458Z,10.28
2022-11-12T21:59:00.270Z,10.29
2022-11-12T22:01:30.068Z,10.27
2022-11-12T22:03:59.387Z,10.29
2022-11-12T22:06:29.492Z,10.27
2022-11-12T22:08:57.726Z,10.27
2022-11-12T22:11:25.468Z,10.28
2022-11-12T22:13:52.580Z,10.26
2022-11-12T22:16:22.584Z,10.26
2022-11-12T22:18:52.302Z,10.27
2022-11-12T22:21:35.579Z,10.25
2022-11-12T22:24:07.040Z,10.22
2022-11-12T22:26:33.891Z,10.22
2022-11-12T22:29:00.689Z,10.22
2022-11-12T22:31:32.436Z,10.23
2022-11-12T22:34:01.862Z,10.20
2022-11-12T22:36:31.390Z,10.20
2022-11-12T22:38:58.565Z,10.19
2022-11-12T22:41:28.626Z,10.21
2022-11-12T22:43:58.836Z,10.20
2022-11-12T22:46:33.533Z,10.21
2022-11-12T22:49:01.249Z,10.21
2022-11-12T22:51:31.283Z,10.20
2022-11-12T22:54:01.798Z,10.20
2022-11-12T22:56:29.557Z,10.20
2022-11-12T22:58:56.352Z,10.19
2022-11-12T23:01:27.146Z,10.18
2022-11-12T23:04:00.118Z,10.18
2022-11-12T23:06:29.091Z,10.15
2022-11-12T23:08:59.093Z,10.15
2022-11-12T23:11:26.226Z,10.15
2022-11-12T23:13:54.528Z,10.14
2022-11-12T23:16:32.037Z,10.14
2022-11-12T23:18:59.377Z,10.13
2022-11-12T23:21:29.039Z,10.12
2022-11-12T23:23:59.839Z,10.11
2022-11-12T23:26:31.031Z,10.10
2022-11-12T23:28:57.915Z,10.07
2022-11-12T23:31:29.507Z,10.07
2022-11-12T23:33:58.769Z,10.05
2022-11-12T23:36:26.680Z,10.04
2022-11-12T23:38:54.499Z,10.02
2022-11-12T23:41:25.623Z,9.99
2022-11-12T23:43:57.780Z,9.99
2022-11-12T23:46:25.156Z,9.97
2022-11-12T23:48:51.939Z,9.96
2022-11-12T23:51:21.211Z,9.96
2022-11-12T23:53:48.922Z,9.94
2022-11-12T23:56:19.626Z,9.93
2022-11-12T23:58:46.709Z,9.92
